sensor_id;sensor_type;location;lat;lon;timestamp;P1;durP1;ratioP1;P2;durP2;ratioP2
36253;SDS011;22291;52.250;21.228;2023-09-18T00:01:16;11.15;;;8.08;;
36253;SDS011;22291;52.250;21.228;2023-09-18T00:03:46;10.80;;;8.40;;
36253;SDS011;22291;52.250;21.228;2023-09-18T00:06:15;13.72;;;7.53;;
36253;SDS011;22291;52.250;21.228;2023-09-18T00:08:41;11.35;;;8.43;;
36253;SDS011;22291;52.250;21.228;2023-09-18T00:11:09;10.82;;;8.05;;
36253;SDS011;22291;52.250;21.228;2023-09-18T00:13:37;9.53;;;8.35;;
36253;SDS011;22291;52.250;21.228;2023-09-18T00:16:05;11.22;;;8.88;;
36253;SDS011;22291;52.250;21.228;2023-09-18T00:18:31;11.55;;;9.28;;
36253;SDS011;22291;52.250;21.228;2023-09-18T00:20:59;10.00;;;8.88;;
36253;SDS011;22291;52.250;21.228;2023-09-18T00:23:26;10.38;;;8.98;;
36253;SDS011;22291;52.250;21.228;2023-09-18T00:25:52;11.53;;;9.55;;
36253;SDS011;22291;52.250;21.228;2023-09-18T00:28:18;11.05;;;8.85;;
36253;SDS011;22291;52.250;21.228;2023-09-18T00:30:49;10.72;;;9.10;;
36253;SDS011;22291;52.250;21.228;2023-09-18T00:33:16;11.28;;;8.95;;
36253;SDS011;22291;52.250;21.228;2023-09-18T00:35:48;13.20;;;9.18;;
36253;SDS011;22291;52.250;21.228;2023-09-18T00:38:22;11.83;;;8.88;;
36253;SDS011;22291;52.250;21.228;2023-09-18T00:40:49;11.48;;;8.63;;
36253;SDS011;22291;52.250;21.228;2023-09-18T00:43:15;12.50;;;9.25;;
36253;SDS011;22291;52.250;21.228;2023-09-18T00:45:44;9.63;;;8.63;;
36253;SDS011;22291;52.250;21.228;2023-09-18T00:48:15;10.60;;;9.50;;
36253;SDS011;22291;52.250;21.228;2023-09-18T00:50:45;12.03;;;8.68;;
36253;SDS011;22291;52.250;21.228;2023-09-18T00:53:51;15.80;;;8.95;;
36253;SDS011;22291;52.250;21.228;2023-09-18T00:56:21;10.00;;;8.93;;
36253;SDS011;22291;52.250;21.228;2023-09-18T00:58:47;12.40;;;8.35;;
36253;SDS011;22291;52.250;21.228;2023-09-18T01:01:14;16.87;;;9.05;;
36253;SDS011;22291;52.250;21.228;2023-09-18T01:03:49;14.60;;;9.58;;
36253;SDS011;22291;52.250;21.228;2023-09-18T01:06:20;12.80;;;8.88;;
36253;SDS011;22291;52.250;21.228;2023-09-18T01:08:48;14.90;;;8.83;;
36253;SDS011;22291;52.250;21.228;2023-09-18T01:14:06;9.80;;;8.63;;
36253;SDS011;22291;52.250;21.228;2023-09-18T01:16:44;14.75;;;9.80;;
36253;SDS011;22291;52.250;21.228;2023-09-18T01:19:40;12.90;;;9.10;;
36253;SDS011;22291;52.250;21.228;2023-09-18T01:22:13;12.35;;;10.60;;
36253;SDS011;22291;52.250;21.228;2023-09-18T01:24:47;13.15;;;9.73;;
36253;SDS011;22291;52.250;21.228;2023-09-18T01:27:16;12.28;;;9.60;;
36253;SDS011;22291;52.250;21.228;2023-09-18T01:29:44;11.03;;;9.78;;
36253;SDS011;22291;52.250;21.228;2023-09-18T01:32:17;14.00;;;10.78;;
36253;SDS011;22291;52.250;21.228;2023-09-18T01:34:47;11.33;;;10.03;;
36253;SDS011;22291;52.250;21.228;2023-09-18T01:37:19;14.03;;;9.53;;
36253;SDS011;22291;52.250;21.228;2023-09-18T01:39:50;12.28;;;10.32;;
36253;SDS011;22291;52.250;21.228;2023-09-18T01:42:20;14.63;;;10.60;;
36253;SDS011;22291;52.250;21.228;2023-09-18T01:44:48;11.20;;;9.73;;
36253;SDS011;22291;52.250;21.228;2023-09-18T01:47:20;12.10;;;9.73;;
36253;SDS011;22291;52.250;21.228;2023-09-18T01:49:52;11.75;;;9.83;;
36253;SDS011;22291;52.250;21.228;2023-09-18T01:52:18;13.90;;;10.40;;
36253;SDS011;22291;52.250;21.228;2023-09-18T01:54:46;13.08;;;10.90;;
36253;SDS011;22291;52.250;21.228;2023-09-18T01:57:16;14.80;;;10.65;;
36253;SDS011;22291;52.250;21.228;2023-09-18T01:59:42;12.53;;;11.22;;
36253;SDS011;22291;52.250;21.228;2023-09-18T02:02:10;14.30;;;10.08;;
36253;SDS011;22291;52.250;21.228;2023-09-18T02:04:38;13.65;;;10.80;;
36253;SDS011;22291;52.250;21.228;2023-09-18T02:07:06;14.07;;;10.30;;
36253;SDS011;22291;52.250;21.228;2023-09-18T02:09:34;11.70;;;10.55;;
36253;SDS011;22291;52.250;21.228;2023-09-18T02:12:01;16.15;;;10.53;;
36253;SDS011;22291;52.250;21.228;2023-09-18T02:14:28;12.88;;;9.90;;
36253;SDS011;22291;52.250;21.228;2023-09-18T02:16:57;14.30;;;10.88;;
36253;SDS011;22291;52.250;21.228;2023-09-18T02:19:25;13.15;;;9.70;;
36253;SDS011;22291;52.250;21.228;2023-09-18T02:21:55;11.65;;;9.80;;
36253;SDS011;22291;52.250;21.228;2023-09-18T02:24:23;14.23;;;9.83;;
36253;SDS011;22291;52.250;21.228;2023-09-18T02:26:49;16.77;;;9.98;;
36253;SDS011;22291;52.250;21.228;2023-09-18T02:29:15;14.33;;;11.63;;
36253;SDS011;22291;52.250;21.228;2023-09-18T02:31:41;16.77;;;11.28;;
36253;SDS011;22291;52.250;21.228;2023-09-18T02:34:07;13.50;;;10.82;;
36253;SDS011;22291;52.250;21.228;2023-09-18T02:36:35;11.95;;;10.60;;
36253;SDS011;22291;52.250;21.228;2023-09-18T02:39:02;14.60;;;10.93;;
36253;SDS011;22291;52.250;21.228;2023-09-18T02:41:31;12.93;;;10.88;;
36253;SDS011;22291;52.250;21.228;2023-09-18T02:43:58;15.63;;;10.43;;
36253;SDS011;22291;52.250;21.228;2023-09-18T02:46:24;13.75;;;11.55;;
36253;SDS011;22291;52.250;21.228;2023-09-18T02:48:50;13.95;;;10.90;;
36253;SDS011;22291;52.250;21.228;2023-09-18T02:51:16;12.88;;;10.43;;
36253;SDS011;22291;52.250;21.228;2023-09-18T02:53:42;15.48;;;11.88;;
36253;SDS011;22291;52.250;21.228;2023-09-18T02:56:08;14.73;;;12.55;;
36253;SDS011;22291;52.250;21.228;2023-09-18T02:58:35;12.85;;;11.55;;
36253;SDS011;22291;52.250;21.228;2023-09-18T03:01:03;17.80;;;12.55;;
36253;SDS011;22291;52.250;21.228;2023-09-18T03:03:35;14.58;;;11.38;;
36253;SDS011;22291;52.250;21.228;2023-09-18T03:06:05;13.65;;;11.78;;
36253;SDS011;22291;52.250;21.228;2023-09-18T03:08:32;13.10;;;11.50;;
36253;SDS011;22291;52.250;21.228;2023-09-18T03:11:02;15.68;;;11.35;;
36253;SDS011;22291;52.250;21.228;2023-09-18T03:13:30;14.60;;;11.88;;
36253;SDS011;22291;52.250;21.228;2023-09-18T03:16:01;16.60;;;12.05;;
36253;SDS011;22291;52.250;21.228;2023-09-18T03:18:27;17.20;;;11.45;;
36253;SDS011;22291;52.250;21.228;2023-09-18T03:20:53;16.93;;;10.85;;
36253;SDS011;22291;52.250;21.228;2023-09-18T03:23:19;14.70;;;12.07;;
36253;SDS011;22291;52.250;21.228;2023-09-18T03:25:47;15.98;;;12.10;;
36253;SDS011;22291;52.250;21.228;2023-09-18T03:28:13;13.55;;;11.10;;
36253;SDS011;22291;52.250;21.228;2023-09-18T03:30:40;12.93;;;11.48;;
36253;SDS011;22291;52.250;21.228;2023-09-18T03:33:09;12.35;;;11.15;;
36253;SDS011;22291;52.250;21.228;2023-09-18T03:35:50;12.90;;;11.20;;
36253;SDS011;22291;52.250;21.228;2023-09-18T03:40:46;14.38;;;12.60;;
36253;SDS011;22291;52.250;21.228;2023-09-18T03:43:13;15.05;;;12.23;;
36253;SDS011;22291;52.250;21.228;2023-09-18T03:45:39;13.80;;;12.05;;
36253;SDS011;22291;52.250;21.228;2023-09-18T03:48:07;14.35;;;12.75;;
36253;SDS011;22291;52.250;21.228;2023-09-18T03:50:33;13.13;;;11.48;;
36253;SDS011;22291;52.250;21.228;2023-09-18T03:53:01;15.15;;;12.70;;
36253;SDS011;22291;52.250;21.228;2023-09-18T03:55:30;16.87;;;11.57;;
36253;SDS011;22291;52.250;21.228;2023-09-18T03:57:57;14.90;;;11.65;;
36253;SDS011;22291;52.250;21.228;2023-09-18T04:00:26;12.28;;;10.90;;
36253;SDS011;22291;52.250;21.228;2023-09-18T04:02:53;14.63;;;11.78;;
36253;SDS011;22291;52.250;21.228;2023-09-18T04:05:19;13.93;;;11.75;;
36253;SDS011;22291;52.250;21.228;2023-09-18T04:07:45;14.68;;;11.60;;
36253;SDS011;22291;52.250;21.228;2023-09-18T04:10:12;14.18;;;11.15;;
36253;SDS011;22291;52.250;21.228;2023-09-18T04:12:44;13.30;;;10.63;;
36253;SDS011;22291;52.250;21.228;2023-09-18T04:15:13;15.48;;;10.88;;
36253;SDS011;22291;52.250;21.228;2023-09-18T04:17:44;13.08;;;11.40;;
36253;SDS011;22291;52.250;21.228;2023-09-18T04:20:14;16.42;;;12.70;;
36253;SDS011;22291;52.250;21.228;2023-09-18T04:22:46;14.07;;;12.25;;
36253;SDS011;22291;52.250;21.228;2023-09-18T04:25:19;14.60;;;11.83;;
36253;SDS011;22291;52.250;21.228;2023-09-18T04:27:47;14.75;;;11.97;;
36253;SDS011;22291;52.250;21.228;2023-09-18T04:30:15;14.30;;;12.15;;
36253;SDS011;22291;52.250;21.228;2023-09-18T04:32:43;14.15;;;11.60;;
36253;SDS011;22291;52.250;21.228;2023-09-18T04:35:11;22.67;;;17.37;;
36253;SDS011;22291;52.250;21.228;2023-09-18T04:37:39;15.20;;;11.73;;
36253;SDS011;22291;52.250;21.228;2023-09-18T04:40:10;14.80;;;12.68;;
36253;SDS011;22291;52.250;21.228;2023-09-18T04:42:39;14.68;;;12.37;;
36253;SDS011;22291;52.250;21.228;2023-09-18T04:45:09;15.55;;;12.10;;
36253;SDS011;22291;52.250;21.228;2023-09-18T04:47:38;15.13;;;11.60;;
36253;SDS011;22291;52.250;21.228;2023-09-18T04:50:09;13.62;;;12.23;;
36253;SDS011;22291;52.250;21.228;2023-09-18T04:52:38;14.75;;;12.43;;
36253;SDS011;22291;52.250;21.228;2023-09-18T04:55:07;14.98;;;11.78;;
36253;SDS011;22291;52.250;21.228;2023-09-18T04:57:34;16.90;;;12.50;;
36253;SDS011;22291;52.250;21.228;2023-09-18T05:00:00;15.55;;;12.55;;
36253;SDS011;22291;52.250;21.228;2023-09-18T05:02:38;17.15;;;12.95;;
36253;SDS011;22291;52.250;21.228;2023-09-18T05:05:09;16.52;;;13.28;;
36253;SDS011;22291;52.250;21.228;2023-09-18T05:07:35;15.83;;;13.40;;
36253;SDS011;22291;52.250;21.228;2023-09-18T05:10:08;14.98;;;13.35;;
36253;SDS011;22291;52.250;21.228;2023-09-18T05:12:38;14.33;;;12.82;;
36253;SDS011;22291;52.250;21.228;2023-09-18T05:15:09;16.40;;;13.38;;
36253;SDS011;22291;52.250;21.228;2023-09-18T05:17:42;18.82;;;12.90;;
36253;SDS011;22291;52.250;21.228;2023-09-18T05:20:13;15.60;;;12.85;;
36253;SDS011;22291;52.250;21.228;2023-09-18T05:22:43;14.85;;;12.65;;
36253;SDS011;22291;52.250;21.228;2023-09-18T05:25:13;16.55;;;13.25;;
36253;SDS011;22291;52.250;21.228;2023-09-18T05:27:42;16.82;;;13.35;;
36253;SDS011;22291;52.250;21.228;2023-09-18T05:30:14;18.42;;;13.65;;
36253;SDS011;22291;52.250;21.228;2023-09-18T05:32:48;16.10;;;13.00;;
36253;SDS011;22291;52.250;21.228;2023-09-18T05:35:15;16.70;;;13.70;;
36253;SDS011;22291;52.250;21.228;2023-09-18T05:37:43;20.57;;;14.58;;
36253;SDS011;22291;52.250;21.228;2023-09-18T05:40:12;15.08;;;13.18;;
36253;SDS011;22291;52.250;21.228;2023-09-18T05:42:41;19.67;;;14.50;;
36253;SDS011;22291;52.250;21.228;2023-09-18T05:45:12;19.27;;;15.10;;
36253;SDS011;22291;52.250;21.228;2023-09-18T05:47:42;17.30;;;14.30;;
36253;SDS011;22291;52.250;21.228;2023-09-18T05:50:08;17.70;;;14.70;;
36253;SDS011;22291;52.250;21.228;2023-09-18T05:52:42;16.45;;;14.05;;
36253;SDS011;22291;52.250;21.228;2023-09-18T05:55:15;20.20;;;14.80;;
36253;SDS011;22291;52.250;21.228;2023-09-18T05:57:43;15.53;;;13.83;;
36253;SDS011;22291;52.250;21.228;2023-09-18T06:00:13;16.30;;;14.38;;
36253;SDS011;22291;52.250;21.228;2023-09-18T06:02:42;16.45;;;14.35;;
36253;SDS011;22291;52.250;21.228;2023-09-18T06:05:10;18.32;;;14.75;;
36253;SDS011;22291;52.250;21.228;2023-09-18T06:07:38;17.07;;;15.28;;
36253;SDS011;22291;52.250;21.228;2023-09-18T06:10:07;20.62;;;14.95;;
36253;SDS011;22291;52.250;21.228;2023-09-18T06:12:40;20.23;;;14.23;;
36253;SDS011;22291;52.250;21.228;2023-09-18T06:15:10;17.82;;;14.47;;
36253;SDS011;22291;52.250;21.228;2023-09-18T06:17:38;17.92;;;15.10;;
36253;SDS011;22291;52.250;21.228;2023-09-18T06:20:13;19.17;;;15.20;;
36253;SDS011;22291;52.250;21.228;2023-09-18T06:22:41;20.02;;;15.28;;
36253;SDS011;22291;52.250;21.228;2023-09-18T06:25:09;15.93;;;14.23;;
36253;SDS011;22291;52.250;21.228;2023-09-18T06:27:37;18.75;;;14.58;;
36253;SDS011;22291;52.250;21.228;2023-09-18T06:30:12;17.55;;;15.65;;
36253;SDS011;22291;52.250;21.228;2023-09-18T06:32:44;20.52;;;16.60;;
36253;SDS011;22291;52.250;21.228;2023-09-18T06:35:10;18.00;;;15.70;;
36253;SDS011;22291;52.250;21.228;2023-09-18T06:37:36;19.55;;;16.10;;
36253;SDS011;22291;52.250;21.228;2023-09-18T06:40:09;22.07;;;16.35;;
36253;SDS011;22291;52.250;21.228;2023-09-18T06:42:38;19.65;;;14.70;;
36253;SDS011;22291;52.250;21.228;2023-09-18T06:45:09;17.07;;;12.98;;
36253;SDS011;22291;52.250;21.228;2023-09-18T06:47:40;19.70;;;14.15;;
36253;SDS011;22291;52.250;21.228;2023-09-18T06:50:09;18.75;;;13.93;;
36253;SDS011;22291;52.250;21.228;2023-09-18T06:52:37;18.30;;;13.65;;
36253;SDS011;22291;52.250;21.228;2023-09-18T06:55:03;16.57;;;14.10;;
36253;SDS011;22291;52.250;21.228;2023-09-18T06:57:36;16.52;;;14.83;;
36253;SDS011;22291;52.250;21.228;2023-09-18T07:00:07;19.30;;;13.78;;
36253;SDS011;22291;52.250;21.228;2023-09-18T07:02:45;20.65;;;14.80;;
36253;SDS011;22291;52.250;21.228;2023-09-18T07:05:11;18.67;;;13.08;;
36253;SDS011;22291;52.250;21.228;2023-09-18T07:07:37;15.68;;;12.95;;
36253;SDS011;22291;52.250;21.228;2023-09-18T07:10:08;16.27;;;12.33;;
36253;SDS011;22291;52.250;21.228;2023-09-18T07:12:37;17.85;;;13.53;;
36253;SDS011;22291;52.250;21.228;2023-09-18T07:15:10;17.37;;;12.37;;
36253;SDS011;22291;52.250;21.228;2023-09-18T07:17:36;14.07;;;12.55;;
36253;SDS011;22291;52.250;21.228;2023-09-18T07:20:07;14.28;;;12.10;;
36253;SDS011;22291;52.250;21.228;2023-09-18T07:22:46;14.43;;;11.73;;
36253;SDS011;22291;52.250;21.228;2023-09-18T07:25:25;14.83;;;12.05;;
36253;SDS011;22291;52.250;21.228;2023-09-18T07:27:52;17.48;;;13.90;;
36253;SDS011;22291;52.250;21.228;2023-09-18T07:30:23;17.12;;;14.73;;
36253;SDS011;22291;52.250;21.228;2023-09-18T07:32:56;15.13;;;12.63;;
36253;SDS011;22291;52.250;21.228;2023-09-18T07:35:24;14.87;;;12.35;;
36253;SDS011;22291;52.250;21.228;2023-09-18T07:37:54;14.70;;;11.95;;
36253;SDS011;22291;52.250;21.228;2023-09-18T07:40:21;15.13;;;11.83;;
36253;SDS011;22291;52.250;21.228;2023-09-18T07:42:49;14.43;;;11.55;;
36253;SDS011;22291;52.250;21.228;2023-09-18T08:44:54;11.63;;;10.50;;
36253;SDS011;22291;52.250;21.228;2023-09-18T08:47:27;11.30;;;10.05;;
36253;SDS011;22291;52.250;21.228;2023-09-18T08:49:58;10.85;;;9.73;;
36253;SDS011;22291;52.250;21.228;2023-09-18T08:52:33;12.58;;;10.38;;
36253;SDS011;22291;52.250;21.228;2023-09-18T11:08:23;3.67;;;3.37;;
36253;SDS011;22291;52.250;21.228;2023-09-18T11:10:57;3.62;;;3.12;;
36253;SDS011;22291;52.250;21.228;2023-09-18T11:13:31;7.42;;;3.58;;
36253;SDS011;22291;52.250;21.228;2023-09-18T11:16:02;5.60;;;3.25;;
36253;SDS011;22291;52.250;21.228;2023-09-18T11:18:41;3.47;;;3.20;;
36253;SDS011;22291;52.250;21.228;2023-09-18T11:21:12;4.83;;;3.62;;
36253;SDS011;22291;52.250;21.228;2023-09-18T11:23:43;4.65;;;4.25;;
36253;SDS011;22291;52.250;21.228;2023-09-18T11:26:15;4.00;;;3.70;;
36253;SDS011;22291;52.250;21.228;2023-09-18T11:28:41;9.20;;;8.35;;
36253;SDS011;22291;52.250;21.228;2023-09-18T11:31:13;10.78;;;9.88;;
36253;SDS011;22291;52.250;21.228;2023-09-18T11:33:41;7.15;;;5.37;;
36253;SDS011;22291;52.250;21.228;2023-09-18T11:36:13;4.72;;;4.42;;
36253;SDS011;22291;52.250;21.228;2023-09-18T11:41:27;7.65;;;4.80;;
36253;SDS011;22291;52.250;21.228;2023-09-18T11:46:56;5.67;;;4.60;;
36253;SDS011;22291;52.250;21.228;2023-09-18T11:49:27;5.70;;;5.20;;
36253;SDS011;22291;52.250;21.228;2023-09-18T11:51:58;6.47;;;5.55;;
36253;SDS011;22291;52.250;21.228;2023-09-18T11:54:31;5.70;;;5.20;;
36253;SDS011;22291;52.250;21.228;2023-09-18T11:56:56;7.55;;;5.45;;
36253;SDS011;22291;52.250;21.228;2023-09-18T11:59:39;5.33;;;4.83;;
36253;SDS011;22291;52.250;21.228;2023-09-18T12:02:24;5.37;;;4.87;;
36253;SDS011;22291;52.250;21.228;2023-09-18T12:04:53;6.08;;;5.47;;
36253;SDS011;22291;52.250;21.228;2023-09-18T12:07:23;6.28;;;5.67;;
36253;SDS011;22291;52.250;21.228;2023-09-18T12:09:51;6.85;;;5.42;;
36253;SDS011;22291;52.250;21.228;2023-09-18T12:12:21;5.70;;;5.20;;
36253;SDS011;22291;52.250;21.228;2023-09-18T12:14:49;6.55;;;5.78;;
36253;SDS011;22291;52.250;21.228;2023-09-18T12:17:19;5.67;;;5.17;;
36253;SDS011;22291;52.250;21.228;2023-09-18T12:19:52;5.70;;;5.20;;
36253;SDS011;22291;52.250;21.228;2023-09-18T12:22:25;8.08;;;6.10;;
36253;SDS011;22291;52.250;21.228;2023-09-18T12:25:13;6.58;;;5.97;;
36253;SDS011;22291;52.250;21.228;2023-09-18T12:27:43;6.15;;;5.55;;
36253;SDS011;22291;52.250;21.228;2023-09-18T12:30:15;6.55;;;5.90;;
36253;SDS011;22291;52.250;21.228;2023-09-18T12:32:44;6.67;;;6.03;;
36253;SDS011;22291;52.250;21.228;2023-09-18T12:35:16;6.65;;;5.97;;
36253;SDS011;22291;52.250;21.228;2023-09-18T12:37:44;7.25;;;6.05;;
36253;SDS011;22291;52.250;21.228;2023-09-18T12:40:25;7.00;;;6.40;;
36253;SDS011;22291;52.250;21.228;2023-09-18T12:42:58;6.72;;;5.95;;
36253;SDS011;22291;52.250;21.228;2023-09-18T12:45:29;6.42;;;5.80;;
36253;SDS011;22291;52.250;21.228;2023-09-18T12:47:59;7.15;;;6.42;;
36253;SDS011;22291;52.250;21.228;2023-09-18T12:50:31;6.70;;;6.10;;
36253;SDS011;22291;52.250;21.228;2023-09-18T12:53:21;7.03;;;6.42;;
36253;SDS011;22291;52.250;21.228;2023-09-18T12:55:43;6.12;;;5.53;;
36253;SDS011;22291;52.250;21.228;2023-09-18T12:58:12;7.75;;;6.28;;
36253;SDS011;22291;52.250;21.228;2023-09-18T13:00:49;10.65;;;6.53;;
36253;SDS011;22291;52.250;21.228;2023-09-18T13:03:18;6.97;;;5.83;;
36253;SDS011;22291;52.250;21.228;2023-09-18T13:05:46;7.25;;;6.55;;
36253;SDS011;22291;52.250;21.228;2023-09-18T13:08:14;6.62;;;6.03;;
36253;SDS011;22291;52.250;21.228;2023-09-18T13:10:44;6.65;;;5.85;;
36253;SDS011;22291;52.250;21.228;2023-09-18T13:13:19;7.20;;;6.50;;
36253;SDS011;22291;52.250;21.228;2023-09-18T13:15:52;7.53;;;6.22;;
36253;SDS011;22291;52.250;21.228;2023-09-18T13:18:22;7.37;;;6.67;;
36253;SDS011;22291;52.250;21.228;2023-09-18T13:20:50;7.00;;;6.05;;
36253;SDS011;22291;52.250;21.228;2023-09-18T13:23:20;6.80;;;6.22;;
36253;SDS011;22291;52.250;21.228;2023-09-18T13:26:04;6.25;;;5.75;;
36253;SDS011;22291;52.250;21.228;2023-09-18T13:28:31;7.25;;;6.55;;
36253;SDS011;22291;52.250;21.228;2023-09-18T13:31:05;6.33;;;5.83;;
36253;SDS011;22291;52.250;21.228;2023-09-18T13:33:38;7.12;;;6.08;;
36253;SDS011;22291;52.250;21.228;2023-09-18T13:36:05;6.83;;;6.33;;
36253;SDS011;22291;52.250;21.228;2023-09-18T13:38:32;7.20;;;6.50;;
36253;SDS011;22291;52.250;21.228;2023-09-18T13:40:58;6.87;;;6.25;;
36253;SDS011;22291;52.250;21.228;2023-09-18T13:43:25;7.65;;;6.40;;
36253;SDS011;22291;52.250;21.228;2023-09-18T13:45:53;7.12;;;6.53;;
36253;SDS011;22291;52.250;21.228;2023-09-18T13:48:25;8.30;;;6.33;;
36253;SDS011;22291;52.250;21.228;2023-09-18T13:50:52;6.35;;;5.70;;
36253;SDS011;22291;52.250;21.228;2023-09-18T13:53:20;6.87;;;6.25;;
36253;SDS011;22291;52.250;21.228;2023-09-18T13:55:48;8.55;;;6.50;;
36253;SDS011;22291;52.250;21.228;2023-09-18T13:58:14;8.63;;;6.62;;
36253;SDS011;22291;52.250;21.228;2023-09-18T14:00:43;7.67;;;6.62;;
36253;SDS011;22291;52.250;21.228;2023-09-18T14:03:10;6.90;;;6.15;;
36253;SDS011;22291;52.250;21.228;2023-09-18T14:05:40;6.80;;;6.25;;
36253;SDS011;22291;52.250;21.228;2023-09-18T14:08:07;8.13;;;6.20;;
36253;SDS011;22291;52.250;21.228;2023-09-18T14:10:35;6.90;;;5.58;;
36253;SDS011;22291;52.250;21.228;2023-09-18T14:13:04;6.70;;;6.00;;
36253;SDS011;22291;52.250;21.228;2023-09-18T14:15:30;6.15;;;5.53;;
36253;SDS011;22291;52.250;21.228;2023-09-18T14:17:56;7.05;;;5.28;;
36253;SDS011;22291;52.250;21.228;2023-09-18T14:20:22;5.92;;;5.42;;
36253;SDS011;22291;52.250;21.228;2023-09-18T14:22:49;6.33;;;5.72;;
36253;SDS011;22291;52.250;21.228;2023-09-18T14:25:16;6.25;;;5.65;;
36253;SDS011;22291;52.250;21.228;2023-09-18T14:27:45;7.65;;;6.08;;
36253;SDS011;22291;52.250;21.228;2023-09-18T14:30:15;7.42;;;6.58;;
36253;SDS011;22291;52.250;21.228;2023-09-18T14:33:01;7.67;;;6.08;;
36253;SDS011;22291;52.250;21.228;2023-09-18T14:35:29;7.22;;;6.60;;
36253;SDS011;22291;52.250;21.228;2023-09-18T14:37:55;6.80;;;6.10;;
36253;SDS011;22291;52.250;21.228;2023-09-18T14:40:23;10.97;;;7.23;;
36253;SDS011;22291;52.250;21.228;2023-09-18T14:42:49;7.28;;;6.58;;
36253;SDS011;22291;52.250;21.228;2023-09-18T14:45:16;7.50;;;6.75;;
36253;SDS011;22291;52.250;21.228;2023-09-18T14:47:44;9.07;;;6.50;;
36253;SDS011;22291;52.250;21.228;2023-09-18T14:50:10;8.13;;;6.25;;
36253;SDS011;22291;52.250;21.228;2023-09-18T14:52:36;6.70;;;6.10;;
36253;SDS011;22291;52.250;21.228;2023-09-18T14:55:04;6.30;;;5.80;;
36253;SDS011;22291;52.250;21.228;2023-09-18T14:57:30;6.37;;;5.72;;
36253;SDS011;22291;52.250;21.228;2023-09-18T14:59:57;6.20;;;5.70;;
36253;SDS011;22291;52.250;21.228;2023-09-18T15:02:23;7.95;;;6.30;;
36253;SDS011;22291;52.250;21.228;2023-09-18T15:04:51;6.55;;;5.85;;
36253;SDS011;22291;52.250;21.228;2023-09-18T15:07:17;6.90;;;6.12;;
36253;SDS011;22291;52.250;21.228;2023-09-18T15:09:45;6.67;;;5.93;;
36253;SDS011;22291;52.250;21.228;2023-09-18T15:12:11;8.80;;;6.70;;
36253;SDS011;22291;52.250;21.228;2023-09-18T15:14:38;8.48;;;7.20;;
36253;SDS011;22291;52.250;21.228;2023-09-18T15:17:04;7.45;;;6.75;;
36253;SDS011;22291;52.250;21.228;2023-09-18T15:19:32;9.07;;;7.40;;
36253;SDS011;22291;52.250;21.228;2023-09-18T15:21:58;8.30;;;7.40;;
36253;SDS011;22291;52.250;21.228;2023-09-18T15:24:28;8.73;;;7.83;;
36253;SDS011;22291;52.250;21.228;2023-09-18T15:26:58;9.80;;;7.42;;
36253;SDS011;22291;52.250;21.228;2023-09-18T15:29:25;8.43;;;7.70;;
36253;SDS011;22291;52.250;21.228;2023-09-18T15:31:53;11.10;;;8.33;;
36253;SDS011;22291;52.250;21.228;2023-09-18T15:34:19;10.68;;;7.67;;
36253;SDS011;22291;52.250;21.228;2023-09-18T15:36:46;14.10;;;8.45;;
36253;SDS011;22291;52.250;21.228;2023-09-18T15:39:12;10.13;;;8.88;;
36253;SDS011;22291;52.250;21.228;2023-09-18T15:41:38;12.28;;;9.68;;
36253;SDS011;22291;52.250;21.228;2023-09-18T15:44:04;11.90;;;10.00;;
36253;SDS011;22291;52.250;21.228;2023-09-18T15:46:33;10.10;;;9.15;;
36253;SDS011;22291;52.250;21.228;2023-09-18T15:49:01;11.40;;;9.67;;
36253;SDS011;22291;52.250;21.228;2023-09-18T15:51:29;12.47;;;10.68;;
36253;SDS011;22291;52.250;21.228;2023-09-18T15:53:55;12.10;;;9.95;;
36253;SDS011;22291;52.250;21.228;2023-09-18T15:56:22;13.98;;;10.82;;
36253;SDS011;22291;52.250;21.228;2023-09-18T15:58:48;13.10;;;10.32;;
36253;SDS011;22291;52.250;21.228;2023-09-18T16:01:14;12.30;;;10.20;;
36253;SDS011;22291;52.250;21.228;2023-09-18T16:03:41;11.45;;;10.35;;
36253;SDS011;22291;52.250;21.228;2023-09-18T16:06:15;11.83;;;10.58;;
36253;SDS011;22291;52.250;21.228;2023-09-18T16:08:43;12.68;;;10.50;;
36253;SDS011;22291;52.250;21.228;2023-09-18T16:11:12;15.00;;;11.95;;
36253;SDS011;22291;52.250;21.228;2023-09-18T16:13:40;46.63;;;41.65;;
36253;SDS011;22291;52.250;21.228;2023-09-18T16:16:14;12.47;;;11.15;;
36253;SDS011;22291;52.250;21.228;2023-09-18T16:18:43;13.00;;;10.90;;
36253;SDS011;22291;52.250;21.228;2023-09-18T16:21:09;13.38;;;11.08;;
36253;SDS011;22291;52.250;21.228;2023-09-18T16:23:36;11.65;;;10.48;;
36253;SDS011;22291;52.250;21.228;2023-09-18T16:26:03;19.35;;;11.43;;
36253;SDS011;22291;52.250;21.228;2023-09-18T16:28:33;22.95;;;20.55;;
36253;SDS011;22291;52.250;21.228;2023-09-18T16:30:59;16.93;;;12.68;;
36253;SDS011;22291;52.250;21.228;2023-09-18T16:33:27;12.25;;;10.90;;
36253;SDS011;22291;52.250;21.228;2023-09-18T16:35:53;12.55;;;10.75;;
36253;SDS011;22291;52.250;21.228;2023-09-18T16:38:20;11.78;;;10.40;;
36253;SDS011;22291;52.250;21.228;2023-09-18T16:40:48;11.90;;;10.35;;
36253;SDS011;22291;52.250;21.228;2023-09-18T16:43:16;15.23;;;10.88;;
36253;SDS011;22291;52.250;21.228;2023-09-18T16:45:46;14.60;;;11.15;;
36253;SDS011;22291;52.250;21.228;2023-09-18T16:48:14;12.50;;;11.20;;
36253;SDS011;22291;52.250;21.228;2023-09-18T16:50:41;14.90;;;10.85;;
36253;SDS011;22291;52.250;21.228;2023-09-18T16:53:08;16.90;;;11.43;;
36253;SDS011;22291;52.250;21.228;2023-09-18T16:55:35;12.10;;;10.90;;
36253;SDS011;22291;52.250;21.228;2023-09-18T16:58:01;14.73;;;12.30;;
36253;SDS011;22291;52.250;21.228;2023-09-18T17:00:29;12.95;;;10.75;;
36253;SDS011;22291;52.250;21.228;2023-09-18T17:02:56;14.23;;;12.40;;
36253;SDS011;22291;52.250;21.228;2023-09-18T17:05:23;15.90;;;12.03;;
36253;SDS011;22291;52.250;21.228;2023-09-18T17:07:50;12.82;;;11.48;;
36253;SDS011;22291;52.250;21.228;2023-09-18T17:10:17;13.48;;;11.93;;
36253;SDS011;22291;52.250;21.228;2023-09-18T17:12:44;14.38;;;11.85;;
36253;SDS011;22291;52.250;21.228;2023-09-18T17:15:12;15.18;;;12.30;;
36253;SDS011;22291;52.250;21.228;2023-09-18T17:17:40;16.55;;;11.85;;
36253;SDS011;22291;52.250;21.228;2023-09-18T17:20:07;15.30;;;12.43;;
36253;SDS011;22291;52.250;21.228;2023-09-18T17:22:35;14.40;;;11.75;;
36253;SDS011;22291;52.250;21.228;2023-09-18T17:25:03;13.90;;;12.47;;
36253;SDS011;22291;52.250;21.228;2023-09-18T17:27:35;14.05;;;12.55;;
36253;SDS011;22291;52.250;21.228;2023-09-18T17:30:02;16.90;;;12.05;;
36253;SDS011;22291;52.250;21.228;2023-09-18T17:32:31;17.95;;;12.90;;
36253;SDS011;22291;52.250;21.228;2023-09-18T17:34:59;84.45;;;75.25;;
36253;SDS011;22291;52.250;21.228;2023-09-18T17:37:29;41.18;;;35.28;;
36253;SDS011;22291;52.250;21.228;2023-09-18T17:39:57;41.83;;;37.33;;
36253;SDS011;22291;52.250;21.228;2023-09-18T17:42:25;16.70;;;13.67;;
36253;SDS011;22291;52.250;21.228;2023-09-18T17:44:53;30.77;;;27.37;;
36253;SDS011;22291;52.250;21.228;2023-09-18T17:47:21;56.80;;;50.60;;
36253;SDS011;22291;52.250;21.228;2023-09-18T17:49:47;18.48;;;15.80;;
36253;SDS011;22291;52.250;21.228;2023-09-18T17:52:17;17.75;;;15.83;;
36253;SDS011;22291;52.250;21.228;2023-09-18T17:54:43;22.40;;;14.25;;